CheckWX is a tool to help pilots better visualize weather data.  It is not intended as a substitute for an official pre-flight weather briefing.

09:30:22 UTC

KTOI METAR
Troy Municipal at N Kenneth Campbell Field Airport
Troy, Alabama, USA
Current

16 mins ago

KTOI 260914Z AUTO 00000KT 7SM CLR 09/09 A2989 RMK AO2 T00940094
Observed
Feb-26 @ 09:14 UTC
Visibility
7 SM
Flight Rules
VFR
Cloud Levels
  • Clear skies
Temperature
C / 48°F
Dewpoint
C / 48°F
Humidity
100%
Altimeter
29.89" Hg
Pressure
1012.22 hPa
Previous

37 mins ago

KTOI 260853Z AUTO 00000KT 10SM CLR 09/09 A2990 RMK AO2 SLP123 T00940094 58005
Observed
Feb-26 @ 08:53 UTC
Visibility
10 SM
Flight Rules
VFR
Cloud Levels
  • Clear skies
Temperature
C / 48°F
Dewpoint
C / 48°F
Humidity
100%
Altimeter
29.9" Hg
Pressure
1012.52 hPa
Previous

2 hours ago

KTOI 260753Z AUTO 00000KT 10SM CLR 10/09 A2992 RMK AO2 SLP128 T01000094
Observed
Feb-26 @ 07:53 UTC
Visibility
10 SM
Flight Rules
VFR
Cloud Levels
  • Clear skies
Temperature
10°C / 50°F
Dewpoint
C / 48°F
Humidity
94%
Altimeter
29.92" Hg
Pressure
1013.22 hPa